sensor_id;sensor_type;location;lat;lon;timestamp;P1;durP1;ratioP1;P2;durP2;ratioP2
84474;SDS011;74699;43.068;0.152;2024-03-02T00:00:53;6.50;;;3.08;;
84474;SDS011;74699;43.068;0.152;2024-03-02T00:03:20;6.45;;;3.38;;
84474;SDS011;74699;43.068;0.152;2024-03-02T00:05:49;4.78;;;2.45;;
84474;SDS011;74699;43.068;0.152;2024-03-02T00:08:23;4.07;;;2.28;;
84474;SDS011;74699;43.068;0.152;2024-03-02T00:10:50;6.03;;;2.40;;
84474;SDS011;74699;43.068;0.152;2024-03-02T00:13:18;8.07;;;3.10;;
84474;SDS011;74699;43.068;0.152;2024-03-02T00:15:48;7.15;;;3.70;;
84474;SDS011;74699;43.068;0.152;2024-03-02T00:20:46;6.93;;;2.70;;
84474;SDS011;74699;43.068;0.152;2024-03-02T00:23:16;5.80;;;3.03;;
84474;SDS011;74699;43.068;0.152;2024-03-02T00:25:51;6.10;;;2.90;;
84474;SDS011;74699;43.068;0.152;2024-03-02T00:28:24;6.43;;;3.35;;
84474;SDS011;74699;43.068;0.152;2024-03-02T00:33:22;5.00;;;2.15;;
84474;SDS011;74699;43.068;0.152;2024-03-02T00:35:49;5.55;;;2.60;;
84474;SDS011;74699;43.068;0.152;2024-03-02T00:38:15;4.82;;;2.13;;
84474;SDS011;74699;43.068;0.152;2024-03-02T00:40:42;6.38;;;2.47;;
84474;SDS011;74699;43.068;0.152;2024-03-02T00:43:57;4.40;;;1.92;;
84474;SDS011;74699;43.068;0.152;2024-03-02T00:45:54;3.92;;;1.70;;
84474;SDS011;74699;43.068;0.152;2024-03-02T00:48:20;4.78;;;1.73;;
84474;SDS011;74699;43.068;0.152;2024-03-02T00:50:50;4.32;;;1.50;;
84474;SDS011;74699;43.068;0.152;2024-03-02T00:53:17;3.78;;;1.80;;
84474;SDS011;74699;43.068;0.152;2024-03-02T00:55:46;4.25;;;1.67;;
84474;SDS011;74699;43.068;0.152;2024-03-02T00:58:13;4.68;;;1.60;;
84474;SDS011;74699;43.068;0.152;2024-03-02T01:00:39;4.15;;;1.60;;
84474;SDS011;74699;43.068;0.152;2024-03-02T01:03:05;4.70;;;1.42;;
84474;SDS011;74699;43.068;0.152;2024-03-02T01:05:32;3.92;;;1.67;;
84474;SDS011;74699;43.068;0.152;2024-03-02T01:07:59;3.90;;;1.67;;
84474;SDS011;74699;43.068;0.152;2024-03-02T01:10:25;4.25;;;1.63;;
84474;SDS011;74699;43.068;0.152;2024-03-02T01:12:51;3.83;;;1.55;;
84474;SDS011;74699;43.068;0.152;2024-03-02T01:15:17;3.30;;;1.42;;
84474;SDS011;74699;43.068;0.152;2024-03-02T01:17:43;4.45;;;1.63;;
84474;SDS011;74699;43.068;0.152;2024-03-02T01:20:09;4.35;;;2.10;;
84474;SDS011;74699;43.068;0.152;2024-03-02T01:22:35;3.97;;;1.75;;
84474;SDS011;74699;43.068;0.152;2024-03-02T01:25:02;4.43;;;1.77;;
84474;SDS011;74699;43.068;0.152;2024-03-02T01:27:28;5.13;;;1.77;;
84474;SDS011;74699;43.068;0.152;2024-03-02T01:29:54;4.32;;;2.00;;
84474;SDS011;74699;43.068;0.152;2024-03-02T01:32:20;3.35;;;1.40;;
84474;SDS011;74699;43.068;0.152;2024-03-02T01:34:46;5.13;;;1.52;;
84474;SDS011;74699;43.068;0.152;2024-03-02T01:37:12;3.53;;;1.27;;
84474;SDS011;74699;43.068;0.152;2024-03-02T01:39:39;4.07;;;1.20;;
84474;SDS011;74699;43.068;0.152;2024-03-02T01:42:05;3.92;;;1.25;;
84474;SDS011;74699;43.068;0.152;2024-03-02T01:44:31;2.55;;;1.00;;
84474;SDS011;74699;43.068;0.152;2024-03-02T01:46:57;2.90;;;1.10;;
84474;SDS011;74699;43.068;0.152;2024-03-02T01:49:23;3.42;;;1.17;;
84474;SDS011;74699;43.068;0.152;2024-03-02T01:51:49;2.88;;;1.38;;
84474;SDS011;74699;43.068;0.152;2024-03-02T01:54:15;2.90;;;1.00;;
84474;SDS011;74699;43.068;0.152;2024-03-02T01:56:41;4.18;;;1.30;;
84474;SDS011;74699;43.068;0.152;2024-03-02T01:59:07;3.10;;;1.38;;
84474;SDS011;74699;43.068;0.152;2024-03-02T02:01:33;3.65;;;1.30;;
84474;SDS011;74699;43.068;0.152;2024-03-02T02:03:59;3.83;;;1.50;;
84474;SDS011;74699;43.068;0.152;2024-03-02T02:06:25;3.75;;;1.20;;
84474;SDS011;74699;43.068;0.152;2024-03-02T02:08:51;3.97;;;1.30;;
84474;SDS011;74699;43.068;0.152;2024-03-02T02:11:17;3.80;;;0.98;;
84474;SDS011;74699;43.068;0.152;2024-03-02T02:13:43;1.67;;;0.80;;
84474;SDS011;74699;43.068;0.152;2024-03-02T02:16:09;3.42;;;1.00;;
84474;SDS011;74699;43.068;0.152;2024-03-02T02:18:35;2.72;;;0.98;;
84474;SDS011;74699;43.068;0.152;2024-03-02T02:21:02;1.38;;;0.65;;
84474;SDS011;74699;43.068;0.152;2024-03-02T02:23:28;3.13;;;1.45;;
84474;SDS011;74699;43.068;0.152;2024-03-02T02:25:54;3.03;;;1.10;;
84474;SDS011;74699;43.068;0.152;2024-03-02T02:28:20;3.83;;;1.30;;
84474;SDS011;74699;43.068;0.152;2024-03-02T02:30:46;3.92;;;1.40;;
84474;SDS011;74699;43.068;0.152;2024-03-02T02:33:12;4.53;;;1.40;;
84474;SDS011;74699;43.068;0.152;2024-03-02T02:35:38;2.05;;;1.02;;
84474;SDS011;74699;43.068;0.152;2024-03-02T02:38:04;3.15;;;1.25;;
84474;SDS011;74699;43.068;0.152;2024-03-02T02:40:31;2.28;;;1.00;;
84474;SDS011;74699;43.068;0.152;2024-03-02T02:42:58;1.73;;;0.60;;
84474;SDS011;74699;43.068;0.152;2024-03-02T02:45:24;3.10;;;1.00;;
84474;SDS011;74699;43.068;0.152;2024-03-02T02:47:50;3.70;;;1.23;;
84474;SDS011;74699;43.068;0.152;2024-03-02T02:50:16;3.13;;;1.20;;
84474;SDS011;74699;43.068;0.152;2024-03-02T02:52:42;2.80;;;0.98;;
84474;SDS011;74699;43.068;0.152;2024-03-02T02:55:09;3.78;;;1.10;;
84474;SDS011;74699;43.068;0.152;2024-03-02T02:57:36;2.75;;;1.20;;
84474;SDS011;74699;43.068;0.152;2024-03-02T03:00:07;4.20;;;0.75;;
84474;SDS011;74699;43.068;0.152;2024-03-02T03:02:35;2.40;;;1.00;;
84474;SDS011;74699;43.068;0.152;2024-03-02T03:05:01;3.05;;;0.95;;
84474;SDS011;74699;43.068;0.152;2024-03-02T03:07:27;2.78;;;1.02;;
84474;SDS011;74699;43.068;0.152;2024-03-02T03:09:54;2.38;;;0.88;;
84474;SDS011;74699;43.068;0.152;2024-03-02T03:12:20;3.45;;;1.40;;
84474;SDS011;74699;43.068;0.152;2024-03-02T03:14:46;2.78;;;1.00;;
84474;SDS011;74699;43.068;0.152;2024-03-02T03:19:48;2.58;;;1.10;;
84474;SDS011;74699;43.068;0.152;2024-03-02T03:22:14;3.60;;;1.20;;
84474;SDS011;74699;43.068;0.152;2024-03-02T03:24:40;3.90;;;1.30;;
84474;SDS011;74699;43.068;0.152;2024-03-02T03:27:06;2.83;;;1.00;;
84474;SDS011;74699;43.068;0.152;2024-03-02T03:29:32;3.00;;;1.00;;
84474;SDS011;74699;43.068;0.152;2024-03-02T03:31:58;2.55;;;1.25;;
84474;SDS011;74699;43.068;0.152;2024-03-02T03:34:24;3.63;;;1.30;;
84474;SDS011;74699;43.068;0.152;2024-03-02T03:36:50;3.40;;;1.23;;
84474;SDS011;74699;43.068;0.152;2024-03-02T03:39:16;2.53;;;1.20;;
84474;SDS011;74699;43.068;0.152;2024-03-02T03:41:42;3.45;;;1.30;;
84474;SDS011;74699;43.068;0.152;2024-03-02T03:44:08;3.85;;;1.42;;
84474;SDS011;74699;43.068;0.152;2024-03-02T03:46:34;3.60;;;1.35;;
84474;SDS011;74699;43.068;0.152;2024-03-02T03:49:00;3.70;;;1.15;;
84474;SDS011;74699;43.068;0.152;2024-03-02T03:51:26;3.03;;;1.10;;
84474;SDS011;74699;43.068;0.152;2024-03-02T03:53:52;2.95;;;0.95;;
84474;SDS011;74699;43.068;0.152;2024-03-02T03:56:18;4.05;;;1.42;;
84474;SDS011;74699;43.068;0.152;2024-03-02T03:58:44;4.47;;;1.77;;
84474;SDS011;74699;43.068;0.152;2024-03-02T04:01:10;5.95;;;2.03;;
84474;SDS011;74699;43.068;0.152;2024-03-02T04:03:37;2.97;;;1.23;;
84474;SDS011;74699;43.068;0.152;2024-03-02T04:06:03;3.78;;;1.30;;
84474;SDS011;74699;43.068;0.152;2024-03-02T04:08:29;4.75;;;1.40;;
84474;SDS011;74699;43.068;0.152;2024-03-02T04:10:55;4.28;;;1.40;;
84474;SDS011;74699;43.068;0.152;2024-03-02T04:13:21;3.40;;;1.10;;
84474;SDS011;74699;43.068;0.152;2024-03-02T04:15:47;4.57;;;1.00;;
84474;SDS011;74699;43.068;0.152;2024-03-02T04:18:13;2.90;;;1.05;;
84474;SDS011;74699;43.068;0.152;2024-03-02T04:20:39;5.45;;;1.40;;
84474;SDS011;74699;43.068;0.152;2024-03-02T04:23:05;2.70;;;1.20;;
84474;SDS011;74699;43.068;0.152;2024-03-02T04:25:32;2.45;;;1.00;;
84474;SDS011;74699;43.068;0.152;2024-03-02T04:27:59;2.92;;;0.80;;
84474;SDS011;74699;43.068;0.152;2024-03-02T04:30:25;3.70;;;1.15;;
84474;SDS011;74699;43.068;0.152;2024-03-02T04:32:51;3.42;;;1.00;;
84474;SDS011;74699;43.068;0.152;2024-03-02T04:35:17;2.70;;;1.02;;
84474;SDS011;74699;43.068;0.152;2024-03-02T04:37:43;3.03;;;1.20;;
84474;SDS011;74699;43.068;0.152;2024-03-02T04:40:10;2.30;;;0.98;;
84474;SDS011;74699;43.068;0.152;2024-03-02T04:42:36;3.45;;;1.20;;
84474;SDS011;74699;43.068;0.152;2024-03-02T04:45:02;3.53;;;1.30;;
84474;SDS011;74699;43.068;0.152;2024-03-02T04:47:28;4.32;;;1.30;;
84474;SDS011;74699;43.068;0.152;2024-03-02T04:49:54;3.55;;;1.23;;
84474;SDS011;74699;43.068;0.152;2024-03-02T04:52:20;3.83;;;1.30;;
84474;SDS011;74699;43.068;0.152;2024-03-02T04:54:46;3.17;;;1.20;;
84474;SDS011;74699;43.068;0.152;2024-03-02T04:57:31;3.65;;;1.08;;
84474;SDS011;74699;43.068;0.152;2024-03-02T04:59:57;2.40;;;1.00;;
84474;SDS011;74699;43.068;0.152;2024-03-02T05:02:23;3.65;;;0.95;;
84474;SDS011;74699;43.068;0.152;2024-03-02T05:04:49;2.70;;;0.90;;
84474;SDS011;74699;43.068;0.152;2024-03-02T05:07:15;2.30;;;0.80;;
84474;SDS011;74699;43.068;0.152;2024-03-02T05:09:41;2.05;;;0.90;;
84474;SDS011;74699;43.068;0.152;2024-03-02T05:12:07;2.92;;;0.90;;
84474;SDS011;74699;43.068;0.152;2024-03-02T05:14:52;2.90;;;0.90;;
84474;SDS011;74699;43.068;0.152;2024-03-02T05:17:18;2.75;;;1.10;;
84474;SDS011;74699;43.068;0.152;2024-03-02T05:19:44;3.13;;;1.13;;
84474;SDS011;74699;43.068;0.152;2024-03-02T05:22:10;4.43;;;1.10;;
84474;SDS011;74699;43.068;0.152;2024-03-02T05:24:36;3.60;;;1.10;;
84474;SDS011;74699;43.068;0.152;2024-03-02T05:27:05;2.58;;;0.93;;
84474;SDS011;74699;43.068;0.152;2024-03-02T05:29:32;2.65;;;1.10;;
84474;SDS011;74699;43.068;0.152;2024-03-02T05:31:58;3.58;;;1.40;;
84474;SDS011;74699;43.068;0.152;2024-03-02T05:34:24;3.78;;;1.38;;
84474;SDS011;74699;43.068;0.152;2024-03-02T05:36:50;5.15;;;1.50;;
84474;SDS011;74699;43.068;0.152;2024-03-02T05:39:16;3.95;;;1.45;;
84474;SDS011;74699;43.068;0.152;2024-03-02T05:41:42;3.42;;;1.17;;
84474;SDS011;74699;43.068;0.152;2024-03-02T05:44:08;3.33;;;1.08;;
84474;SDS011;74699;43.068;0.152;2024-03-02T05:46:34;2.65;;;1.10;;
84474;SDS011;74699;43.068;0.152;2024-03-02T05:49:00;2.53;;;1.00;;
84474;SDS011;74699;43.068;0.152;2024-03-02T05:51:27;2.83;;;0.95;;
84474;SDS011;74699;43.068;0.152;2024-03-02T05:53:53;3.80;;;1.27;;
84474;SDS011;74699;43.068;0.152;2024-03-02T05:56:19;3.30;;;1.10;;
84474;SDS011;74699;43.068;0.152;2024-03-02T05:58:45;3.03;;;1.10;;
84474;SDS011;74699;43.068;0.152;2024-03-02T06:01:20;3.45;;;1.10;;
84474;SDS011;74699;43.068;0.152;2024-03-02T06:03:53;2.67;;;1.05;;
84474;SDS011;74699;43.068;0.152;2024-03-02T06:06:19;2.35;;;1.20;;
84474;SDS011;74699;43.068;0.152;2024-03-02T06:08:46;3.67;;;1.40;;
84474;SDS011;74699;43.068;0.152;2024-03-02T06:11:12;4.15;;;1.40;;
84474;SDS011;74699;43.068;0.152;2024-03-02T06:13:38;3.78;;;1.20;;
84474;SDS011;74699;43.068;0.152;2024-03-02T06:16:04;2.65;;;1.00;;
84474;SDS011;74699;43.068;0.152;2024-03-02T06:18:30;2.90;;;1.10;;
84474;SDS011;74699;43.068;0.152;2024-03-02T06:20:56;3.28;;;1.10;;
84474;SDS011;74699;43.068;0.152;2024-03-02T06:23:22;2.72;;;0.88;;
84474;SDS011;74699;43.068;0.152;2024-03-02T06:25:48;1.95;;;0.85;;
84474;SDS011;74699;43.068;0.152;2024-03-02T06:28:14;2.78;;;1.10;;
84474;SDS011;74699;43.068;0.152;2024-03-02T06:30:41;4.60;;;1.10;;
84474;SDS011;74699;43.068;0.152;2024-03-02T06:33:08;2.85;;;0.95;;
84474;SDS011;74699;43.068;0.152;2024-03-02T06:35:34;3.88;;;1.58;;
84474;SDS011;74699;43.068;0.152;2024-03-02T06:38:00;3.53;;;1.20;;
84474;SDS011;74699;43.068;0.152;2024-03-02T06:40:26;2.28;;;0.90;;
84474;SDS011;74699;43.068;0.152;2024-03-02T06:42:53;2.97;;;0.98;;
84474;SDS011;74699;43.068;0.152;2024-03-02T06:45:19;2.58;;;1.00;;
84474;SDS011;74699;43.068;0.152;2024-03-02T06:47:45;3.58;;;1.00;;
84474;SDS011;74699;43.068;0.152;2024-03-02T06:50:11;2.47;;;1.00;;
84474;SDS011;74699;43.068;0.152;2024-03-02T06:52:37;2.67;;;1.10;;
84474;SDS011;74699;43.068;0.152;2024-03-02T06:55:04;3.58;;;1.35;;
84474;SDS011;74699;43.068;0.152;2024-03-02T06:57:30;2.65;;;1.20;;
84474;SDS011;74699;43.068;0.152;2024-03-02T06:59:56;3.38;;;1.10;;
84474;SDS011;74699;43.068;0.152;2024-03-02T07:02:26;4.20;;;1.63;;
84474;SDS011;74699;43.068;0.152;2024-03-02T07:04:55;3.85;;;1.10;;
84474;SDS011;74699;43.068;0.152;2024-03-02T07:07:21;4.82;;;1.52;;
84474;SDS011;74699;43.068;0.152;2024-03-02T07:09:47;3.05;;;1.42;;
84474;SDS011;74699;43.068;0.152;2024-03-02T07:12:13;3.95;;;2.00;;
84474;SDS011;74699;43.068;0.152;2024-03-02T07:14:41;2.90;;;1.10;;
84474;SDS011;74699;43.068;0.152;2024-03-02T07:17:26;2.38;;;0.90;;
84474;SDS011;74699;43.068;0.152;2024-03-02T07:19:53;3.15;;;1.27;;
84474;SDS011;74699;43.068;0.152;2024-03-02T07:22:19;3.45;;;1.35;;
84474;SDS011;74699;43.068;0.152;2024-03-02T07:24:45;3.63;;;1.20;;
84474;SDS011;74699;43.068;0.152;2024-03-02T07:27:12;3.60;;;1.13;;
84474;SDS011;74699;43.068;0.152;2024-03-02T07:29:40;3.13;;;1.30;;
84474;SDS011;74699;43.068;0.152;2024-03-02T07:32:07;4.95;;;2.20;;
84474;SDS011;74699;43.068;0.152;2024-03-02T07:34:34;7.05;;;2.63;;
84474;SDS011;74699;43.068;0.152;2024-03-02T07:37:00;4.70;;;1.75;;
84474;SDS011;74699;43.068;0.152;2024-03-02T07:39:29;4.15;;;1.67;;
84474;SDS011;74699;43.068;0.152;2024-03-02T07:42:05;3.33;;;1.30;;
84474;SDS011;74699;43.068;0.152;2024-03-02T07:44:31;3.00;;;1.50;;
84474;SDS011;74699;43.068;0.152;2024-03-02T07:46:57;3.22;;;1.42;;
84474;SDS011;74699;43.068;0.152;2024-03-02T07:49:24;4.20;;;1.98;;
84474;SDS011;74699;43.068;0.152;2024-03-02T07:51:50;3.85;;;1.95;;
84474;SDS011;74699;43.068;0.152;2024-03-02T07:54:16;3.55;;;1.35;;
84474;SDS011;74699;43.068;0.152;2024-03-02T07:56:42;3.65;;;1.13;;
84474;SDS011;74699;43.068;0.152;2024-03-02T07:59:08;4.25;;;1.33;;
84474;SDS011;74699;43.068;0.152;2024-03-02T08:01:34;2.97;;;1.17;;
84474;SDS011;74699;43.068;0.152;2024-03-02T08:04:01;3.70;;;1.25;;
84474;SDS011;74699;43.068;0.152;2024-03-02T08:06:29;3.55;;;2.35;;
84474;SDS011;74699;43.068;0.152;2024-03-02T08:08:58;4.32;;;1.60;;
84474;SDS011;74699;43.068;0.152;2024-03-02T08:11:25;7.85;;;3.95;;
84474;SDS011;74699;43.068;0.152;2024-03-02T08:13:52;7.40;;;4.65;;
84474;SDS011;74699;43.068;0.152;2024-03-02T08:16:20;5.47;;;3.17;;
84474;SDS011;74699;43.068;0.152;2024-03-02T08:18:47;7.82;;;3.50;;
84474;SDS011;74699;43.068;0.152;2024-03-02T08:21:13;6.13;;;3.75;;
84474;SDS011;74699;43.068;0.152;2024-03-02T08:23:39;5.85;;;3.22;;
84474;SDS011;74699;43.068;0.152;2024-03-02T08:26:07;6.40;;;3.60;;
84474;SDS011;74699;43.068;0.152;2024-03-02T08:28:33;7.93;;;3.88;;
84474;SDS011;74699;43.068;0.152;2024-03-02T08:30:59;6.05;;;2.80;;
84474;SDS011;74699;43.068;0.152;2024-03-02T08:33:26;6.13;;;3.05;;
84474;SDS011;74699;43.068;0.152;2024-03-02T08:35:52;6.95;;;4.50;;
84474;SDS011;74699;43.068;0.152;2024-03-02T08:38:18;6.95;;;3.95;;
84474;SDS011;74699;43.068;0.152;2024-03-02T08:40:44;8.15;;;3.20;;
84474;SDS011;74699;43.068;0.152;2024-03-02T08:43:10;4.78;;;2.50;;
84474;SDS011;74699;43.068;0.152;2024-03-02T08:45:36;5.28;;;2.50;;
84474;SDS011;74699;43.068;0.152;2024-03-02T08:50:30;5.57;;;2.80;;
84474;SDS011;74699;43.068;0.152;2024-03-02T08:52:57;4.35;;;2.40;;
84474;SDS011;74699;43.068;0.152;2024-03-02T08:55:23;8.45;;;5.55;;
84474;SDS011;74699;43.068;0.152;2024-03-02T08:57:49;9.90;;;5.97;;
84474;SDS011;74699;43.068;0.152;2024-03-02T09:00:15;9.05;;;6.30;;
84474;SDS011;74699;43.068;0.152;2024-03-02T09:02:43;10.32;;;5.90;;
84474;SDS011;74699;43.068;0.152;2024-03-02T09:05:10;8.52;;;5.72;;
84474;SDS011;74699;43.068;0.152;2024-03-02T09:07:36;11.65;;;7.03;;
84474;SDS011;74699;43.068;0.152;2024-03-02T09:10:04;9.20;;;5.75;;
84474;SDS011;74699;43.068;0.152;2024-03-02T09:12:30;9.18;;;5.40;;
84474;SDS011;74699;43.068;0.152;2024-03-02T09:14:56;8.98;;;6.50;;
84474;SDS011;74699;43.068;0.152;2024-03-02T09:17:22;8.65;;;5.88;;
84474;SDS011;74699;43.068;0.152;2024-03-02T09:19:50;9.60;;;6.50;;
84474;SDS011;74699;43.068;0.152;2024-03-02T09:22:18;10.05;;;5.70;;
84474;SDS011;74699;43.068;0.152;2024-03-02T09:24:44;11.20;;;7.18;;
84474;SDS011;74699;43.068;0.152;2024-03-02T09:27:10;11.77;;;7.97;;
84474;SDS011;74699;43.068;0.152;2024-03-02T09:29:36;16.70;;;10.05;;
84474;SDS011;74699;43.068;0.152;2024-03-02T09:32:02;15.50;;;11.00;;
84474;SDS011;74699;43.068;0.152;2024-03-02T09:34:29;15.05;;;10.25;;
84474;SDS011;74699;43.068;0.152;2024-03-02T09:36:55;15.43;;;9.98;;
84474;SDS011;74699;43.068;0.152;2024-03-02T09:39:21;12.23;;;8.20;;
84474;SDS011;74699;43.068;0.152;2024-03-02T09:41:47;12.02;;;7.57;;
84474;SDS011;74699;43.068;0.152;2024-03-02T09:44:13;10.57;;;5.97;;
84474;SDS011;74699;43.068;0.152;2024-03-02T09:46:40;9.38;;;5.05;;
84474;SDS011;74699;43.068;0.152;2024-03-02T09:49:08;11.05;;;5.72;;
84474;SDS011;74699;43.068;0.152;2024-03-02T09:51:35;7.72;;;4.25;;
84474;SDS011;74699;43.068;0.152;2024-03-02T09:54:01;8.00;;;4.80;;
84474;SDS011;74699;43.068;0.152;2024-03-02T09:56:27;7.32;;;4.05;;
84474;SDS011;74699;43.068;0.152;2024-03-02T09:58:53;5.28;;;3.05;;
84474;SDS011;74699;43.068;0.152;2024-03-02T10:01:19;5.75;;;3.42;;
84474;SDS011;74699;43.068;0.152;2024-03-02T10:03:45;6.32;;;3.47;;
84474;SDS011;74699;43.068;0.152;2024-03-02T10:06:18;5.07;;;3.13;;
84474;SDS011;74699;43.068;0.152;2024-03-02T10:08:45;6.65;;;3.42;;
84474;SDS011;74699;43.068;0.152;2024-03-02T10:11:11;6.07;;;4.07;;
84474;SDS011;74699;43.068;0.152;2024-03-02T10:13:49;7.05;;;3.88;;
84474;SDS011;74699;43.068;0.152;2024-03-02T10:16:15;6.47;;;3.42;;
84474;SDS011;74699;43.068;0.152;2024-03-02T10:18:42;6.55;;;3.97;;
84474;SDS011;74699;43.068;0.152;2024-03-02T10:21:12;7.13;;;4.40;;
84474;SDS011;74699;43.068;0.152;2024-03-02T10:23:39;6.78;;;4.45;;
84474;SDS011;74699;43.068;0.152;2024-03-02T10:26:23;7.13;;;4.38;;
84474;SDS011;74699;43.068;0.152;2024-03-02T10:28:49;7.93;;;4.57;;
84474;SDS011;74699;43.068;0.152;2024-03-02T10:31:24;7.47;;;4.85;;
84474;SDS011;74699;43.068;0.152;2024-03-02T10:33:53;7.57;;;4.57;;
84474;SDS011;74699;43.068;0.152;2024-03-02T10:36:20;6.97;;;4.40;;
84474;SDS011;74699;43.068;0.152;2024-03-02T10:38:46;6.28;;;4.20;;
84474;SDS011;74699;43.068;0.152;2024-03-02T10:41:19;10.05;;;5.05;;
84474;SDS011;74699;43.068;0.152;2024-03-02T10:43:48;8.30;;;4.85;;
84474;SDS011;74699;43.068;0.152;2024-03-02T10:46:14;7.60;;;4.57;;
84474;SDS011;74699;43.068;0.152;2024-03-02T10:48:40;7.75;;;4.38;;
84474;SDS011;74699;43.068;0.152;2024-03-02T10:51:08;11.73;;;4.57;;
84474;SDS011;74699;43.068;0.152;2024-03-02T10:53:34;7.30;;;4.40;;
84474;SDS011;74699;43.068;0.152;2024-03-02T10:56:00;7.32;;;3.28;;
84474;SDS011;74699;43.068;0.152;2024-03-02T10:58:28;7.13;;;3.95;;
84474;SDS011;74699;43.068;0.152;2024-03-02T11:00:58;10.90;;;6.28;;
84474;SDS011;74699;43.068;0.152;2024-03-02T11:03:26;11.20;;;7.72;;
84474;SDS011;74699;43.068;0.152;2024-03-02T11:05:52;9.35;;;6.78;;
84474;SDS011;74699;43.068;0.152;2024-03-02T11:08:19;9.68;;;6.05;;
84474;SDS011;74699;43.068;0.152;2024-03-02T11:10:58;9.70;;;5.97;;
84474;SDS011;74699;43.068;0.152;2024-03-02T11:13:32;9.02;;;6.47;;
84474;SDS011;74699;43.068;0.152;2024-03-02T11:15:59;8.43;;;5.32;;
84474;SDS011;74699;43.068;0.152;2024-03-02T11:18:28;10.50;;;6.70;;
84474;SDS011;74699;43.068;0.152;2024-03-02T11:20:55;10.18;;;6.07;;
84474;SDS011;74699;43.068;0.152;2024-03-02T11:23:31;7.78;;;4.78;;
84474;SDS011;74699;43.068;0.152;2024-03-02T11:28:45;11.00;;;5.88;;
84474;SDS011;74699;43.068;0.152;2024-03-02T11:31:11;11.27;;;5.95;;
84474;SDS011;74699;43.068;0.152;2024-03-02T11:33:37;10.05;;;6.05;;
84474;SDS011;74699;43.068;0.152;2024-03-02T11:36:03;9.50;;;5.68;;
84474;SDS011;74699;43.068;0.152;2024-03-02T11:38:32;9.85;;;6.00;;
84474;SDS011;74699;43.068;0.152;2024-03-02T11:41:02;10.43;;;5.57;;
84474;SDS011;74699;43.068;0.152;2024-03-02T11:43:28;7.90;;;4.75;;
84474;SDS011;74699;43.068;0.152;2024-03-02T11:45:58;7.55;;;4.53;;
84474;SDS011;74699;43.068;0.152;2024-03-02T11:48:25;7.82;;;4.75;;
84474;SDS011;74699;43.068;0.152;2024-03-02T11:50:51;8.48;;;4.20;;
84474;SDS011;74699;43.068;0.152;2024-03-02T11:53:17;8.63;;;4.18;;
84474;SDS011;74699;43.068;0.152;2024-03-02T11:55:44;9.57;;;4.82;;
84474;SDS011;74699;43.068;0.152;2024-03-02T12:00:37;7.38;;;3.85;;
84474;SDS011;74699;43.068;0.152;2024-03-02T12:03:07;7.45;;;4.22;;
84474;SDS011;74699;43.068;0.152;2024-03-02T12:05:33;6.10;;;3.72;;
84474;SDS011;74699;43.068;0.152;2024-03-02T12:08:06;7.55;;;4.30;;
84474;SDS011;74699;43.068;0.152;2024-03-02T12:10:33;7.05;;;3.53;;
84474;SDS011;74699;43.068;0.152;2024-03-02T12:12:59;6.45;;;4.10;;
84474;SDS011;74699;43.068;0.152;2024-03-02T12:15:26;6.07;;;3.92;;
84474;SDS011;74699;43.068;0.152;2024-03-02T12:17:56;6.15;;;3.13;;
84474;SDS011;74699;43.068;0.152;2024-03-02T12:20:25;5.03;;;2.85;;
84474;SDS011;74699;43.068;0.152;2024-03-02T12:22:52;5.30;;;3.53;;
84474;SDS011;74699;43.068;0.152;2024-03-02T12:25:22;5.97;;;3.40;;
84474;SDS011;74699;43.068;0.152;2024-03-02T12:27:49;5.90;;;3.70;;
84474;SDS011;74699;43.068;0.152;2024-03-02T12:30:19;6.57;;;4.57;;
84474;SDS011;74699;43.068;0.152;2024-03-02T12:32:45;7.88;;;5.25;;
84474;SDS011;74699;43.068;0.152;2024-03-02T12:35:11;7.72;;;5.18;;
84474;SDS011;74699;43.068;0.152;2024-03-02T12:37:47;8.15;;;5.35;;
84474;SDS011;74699;43.068;0.152;2024-03-02T12:40:14;9.20;;;5.20;;
84474;SDS011;74699;43.068;0.152;2024-03-02T12:42:42;8.18;;;4.85;;
84474;SDS011;74699;43.068;0.152;2024-03-02T12:45:08;8.38;;;4.65;;
84474;SDS011;74699;43.068;0.152;2024-03-02T12:47:35;8.10;;;4.50;;
84474;SDS011;74699;43.068;0.152;2024-03-02T12:50:01;7.57;;;4.07;;
84474;SDS011;74699;43.068;0.152;2024-03-02T12:52:28;7.32;;;4.50;;
84474;SDS011;74699;43.068;0.152;2024-03-02T12:54:54;6.15;;;3.95;;
84474;SDS011;74699;43.068;0.152;2024-03-02T12:57:27;7.65;;;4.47;;
84474;SDS011;74699;43.068;0.152;2024-03-02T13:00:00;8.05;;;3.55;;
84474;SDS011;74699;43.068;0.152;2024-03-02T13:02:30;5.63;;;3.42;;
84474;SDS011;74699;43.068;0.152;2024-03-02T13:04:59;6.13;;;3.05;;
84474;SDS011;74699;43.068;0.152;2024-03-02T13:07:25;6.13;;;3.60;;
84474;SDS011;74699;43.068;0.152;2024-03-02T13:09:52;7.22;;;3.53;;
84474;SDS011;74699;43.068;0.152;2024-03-02T13:12:20;6.35;;;3.60;;
84474;SDS011;74699;43.068;0.152;2024-03-02T13:14:50;6.78;;;3.58;;
84474;SDS011;74699;43.068;0.152;2024-03-02T13:17:17;6.55;;;3.88;;
84474;SDS011;74699;43.068;0.152;2024-03-02T13:19:56;6.05;;;3.45;;
84474;SDS011;74699;43.068;0.152;2024-03-02T13:22:23;6.97;;;3.30;;
84474;SDS011;74699;43.068;0.152;2024-03-02T13:24:49;6.85;;;3.58;;
84474;SDS011;74699;43.068;0.152;2024-03-02T13:27:15;6.50;;;4.93;;
84474;SDS011;74699;43.068;0.152;2024-03-02T13:29:44;7.75;;;4.65;;
84474;SDS011;74699;43.068;0.152;2024-03-02T13:32:11;9.30;;;4.85;;
84474;SDS011;74699;43.068;0.152;2024-03-02T13:34:37;6.10;;;3.65;;
84474;SDS011;74699;43.068;0.152;2024-03-02T13:37:03;8.45;;;5.25;;
84474;SDS011;74699;43.068;0.152;2024-03-02T13:39:30;8.90;;;4.95;;
84474;SDS011;74699;43.068;0.152;2024-03-02T13:41:59;6.65;;;3.65;;
84474;SDS011;74699;43.068;0.152;2024-03-02T13:44:33;7.57;;;3.85;;
84474;SDS011;74699;43.068;0.152;2024-03-02T13:47:00;6.05;;;2.80;;
84474;SDS011;74699;43.068;0.152;2024-03-02T13:49:26;7.00;;;3.22;;
84474;SDS011;74699;43.068;0.152;2024-03-02T13:52:07;6.45;;;3.05;;
84474;SDS011;74699;43.068;0.152;2024-03-02T13:54:41;6.60;;;2.80;;
84474;SDS011;74699;43.068;0.152;2024-03-02T13:57:07;4.30;;;2.22;;
84474;SDS011;74699;43.068;0.152;2024-03-02T13:59:33;4.40;;;1.80;;
84474;SDS011;74699;43.068;0.152;2024-03-02T14:02:00;4.03;;;2.00;;
84474;SDS011;74699;43.068;0.152;2024-03-02T14:04:26;4.57;;;1.50;;
84474;SDS011;74699;43.068;0.152;2024-03-02T14:06:52;3.70;;;1.50;;
84474;SDS011;74699;43.068;0.152;2024-03-02T14:09:19;4.07;;;1.23;;
84474;SDS011;74699;43.068;0.152;2024-03-02T14:11:45;4.05;;;2.08;;
84474;SDS011;74699;43.068;0.152;2024-03-02T14:14:11;6.07;;;2.75;;
84474;SDS011;74699;43.068;0.152;2024-03-02T14:16:38;5.03;;;2.80;;
84474;SDS011;74699;43.068;0.152;2024-03-02T14:19:04;3.38;;;1.85;;
84474;SDS011;74699;43.068;0.152;2024-03-02T14:21:30;4.90;;;2.40;;
84474;SDS011;74699;43.068;0.152;2024-03-02T14:23:57;4.47;;;2.20;;
84474;SDS011;74699;43.068;0.152;2024-03-02T14:26:23;4.15;;;1.85;;
84474;SDS011;74699;43.068;0.152;2024-03-02T14:28:49;4.22;;;1.80;;
84474;SDS011;74699;43.068;0.152;2024-03-02T14:31:15;3.83;;;1.70;;
84474;SDS011;74699;43.068;0.152;2024-03-02T14:33:41;4.35;;;1.77;;
84474;SDS011;74699;43.068;0.152;2024-03-02T14:36:07;5.95;;;3.25;;
84474;SDS011;74699;43.068;0.152;2024-03-02T14:38:33;4.07;;;2.15;;
84474;SDS011;74699;43.068;0.152;2024-03-02T14:40:59;7.47;;;4.20;;
84474;SDS011;74699;43.068;0.152;2024-03-02T14:43:25;5.90;;;2.67;;
84474;SDS011;74699;43.068;0.152;2024-03-02T14:45:51;5.80;;;2.70;;
84474;SDS011;74699;43.068;0.152;2024-03-02T14:48:17;6.22;;;2.60;;
84474;SDS011;74699;43.068;0.152;2024-03-02T14:50:43;7.55;;;2.78;;
84474;SDS011;74699;43.068;0.152;2024-03-02T14:53:09;4.32;;;1.88;;
84474;SDS011;74699;43.068;0.152;2024-03-02T14:55:35;5.07;;;2.25;;
84474;SDS011;74699;43.068;0.152;2024-03-02T14:58:01;4.20;;;2.28;;
84474;SDS011;74699;43.068;0.152;2024-03-02T15:00:27;4.43;;;1.92;;